Flight Track Log - Related Links

Times and Time Zones

All times are in EDT time to prevent confusion due to time zone crossing. See the LXJ541 flight status page for this flight to view local times or setup timezone preferences in your user account.

Time Position Orientation Groundspeed Altitude Reporting Facility
EDT Latitude Longitude Course Direction KTS MPH feet Rate Location/Type
Sun 02:24:42 PM 40.8333 -74.1000 57° Northeast 171 197 1,500  Level New York TRACON
Sun 02:25:42 PM 40.8167 -74.1667 252° West 222 255 2,900 2,087 Climbing New York TRACON
Sun 02:26:37 PM 40.8500 -74.2500 298° West 276 318 5,500 1,550 Climbing New York TRACON
Sun 02:27:42 PM 40.9167 -74.2333 11° North 278 320 6,000 240 Climbing New York TRACON
Sun 02:28:42 PM 41.0000 -74.2000 17° North 275 316 6,000  Level New York TRACON
Sun 02:29:42 PM 41.0667 -74.1667 21° North 275 316 6,000 800 Level New York TRACON
Sun 02:30:00 PM 40.8881 -73.9405 57° Northeast  Level FlightAware Approximate
Sun 02:30:42 PM 41.1500 -74.1333 17° North 271 312 7,600  Level New York TRACON
Sun 02:31:43 PM 41.1833 -74.0500 62° Northeast 289 333 10,400 1,296 Climbing New York TRACON
Sun 02:33:24 PM 41.2225 -73.8503 75° East 342 394 11,100 261 Climbing Boston Center
Sun 02:34:24 PM 41.2467 -73.7294 75° East 337 388 11,100 -50 Level Boston Center
Sun 02:35:24 PM 41.2731 -73.6083 74° East 337 388 11,000 -50 Descending Boston Center
Sun 02:36:24 PM 41.2786 -73.4869 86° East 337 388 11,000 100 Level Boston Center
Sun 02:37:24 PM 41.2525 -73.3733 107° East 309 356 11,200 950 Climbing Boston Center
Sun 02:38:24 PM 41.1989 -73.2953 132° Southeast 309 356 12,900 2,250 Climbing Boston Center
Sun 02:39:24 PM 41.1914 -73.1711 95° East 316 364 15,700 2,050 Climbing Boston Center
Sun 02:40:24 PM 41.2192 -73.0389 74° East 321 369 17,000 700 Climbing Boston Center
Sun 02:41:24 PM 41.2344 -72.9067 81° East 349 402 17,100  Climbing Boston Center
Sun 02:42:24 PM 41.2494 -72.7769 81° East 354 407 17,000 -50 Descending Boston Center
Sun 02:43:24 PM 41.2644 -72.6444 81° East 354 407 17,000  Level Boston Center
Sun 02:44:24 PM 41.2792 -72.5064 82° East 349 402 17,000  Level Boston Center
Sun 02:45:24 PM 41.2936 -72.3739 82° East 349 402 17,000 50 Level Boston Center
Sun 02:46:24 PM 41.3122 -72.2439 79° East 349 402 17,100 50 Climbing Boston Center
Sun 02:47:24 PM 41.3247 -72.1250 82° East 349 402 17,100  Level Boston Center
Sun 02:48:24 PM 41.3367 -71.9811 84° East 354 407 17,100 -45 Level Boston Center
Sun 02:49:36 PM 41.3422 -71.8236 87° East 349 402 17,000 -45 Descending Boston Center
Sun 02:50:36 PM 41.3478 -71.7183 86° East 349 402 17,000  Level Boston Center
Sun 02:51:36 PM 41.3550 -71.5581 87° East 355 409 17,000 -400 Level Boston Center
Sun 02:52:36 PM 41.3558 -71.4253 89° East 355 409 16,200 -1,000 Descending Boston Center
Sun 02:53:36 PM 41.3089 -71.3097 118° Southeast 340 391 15,000 -1,000 Descending Boston Center
Sun 02:54:36 PM 41.2639 -71.1975 118° Southeast 347 399 14,200 -950 Descending Boston Center
Sun 02:55:36 PM 41.2169 -71.0825 118° Southeast 354 407 13,100 -1,050 Descending Boston Center
Sun 02:56:36 PM 41.1697 -70.9731 120° Southeast 349 402 12,100 -1,250 Descending Boston Center
Sun 02:57:36 PM 41.1494 -70.8633 104° East 321 369 10,600 -1,550 Descending Boston Center
Sun 02:58:36 PM 41.1394 -70.7533 97° East 306 352 9,000 -1,700 Descending Boston Center
Sun 02:59:36 PM 41.1275 -70.6517 99° East 293 337 7,200 -1,600 Descending Boston Center
Sun 03:00:36 PM 41.1194 -70.5528 96° East 282 325 5,800 -1,100 Descending Boston Center
Sun 03:01:36 PM 41.1117 -70.4511 96° East 276 318 5,000 -750 Descending Boston Center
Sun 03:02:36 PM 41.1203 -70.3542 83° East 265 305 4,300 -850 Descending Boston Center
Sun 03:03:36 PM 41.1372 -70.2628 76° East 265 305 3,300 -650 Descending Boston Center
Sun 03:04:36 PM 41.1564 -70.1767 74° East 250 288 3,000 -150 Descending Boston Center
Sun 03:05:36 PM 41.1736 -70.1042 72° East 221 254 3,000  Level Boston Center
Sun 03:06:36 PM 41.2142 -70.0531 43° Northeast 200 230 3,000  Level Boston Center
Sun 03:07:36 PM 41.2547 -69.9992 45° Northeast 200 230 3,000 -150 Level Boston Center
Sun 03:08:36 PM 41.2981 -69.9756 22° Northeast 171 197 2,700 -900 Descending Boston Center
Sun 03:09:36 PM 41.2867 -70.0256 253° West 63 72 1,200 -1,100 Descending Boston Center
Sun 03:10:36 PM 41.2725 -70.0511 234° Southwest 63 72 500 4,900 Descending Boston Center
Sun 03:11:36 PM 41.2689 -70.0706 256° West 63 72 11,000 5,250 Climbing Boston Center
Sun 03:12:36 PM 41.2631 -70.0928 251° West 63 72 11,000  Level Boston Center
Sun 03:14:00 PM 41.2531 -70.0603 45° Northeast  Level Estimated
Sun 03:21:00 PM 41.2531 -70.0603 242° Southwest  Level Estimated
Sun 03:22:00 PM 41.2531 -70.0603 242° Southwest  Level Estimated

Login

Don't have an account? Register now (free) for customized features, flight alerts, and more!